createdAt,value
2022-07-26T00:00:36.376Z,13.57
2022-07-26T00:05:39.315Z,12.07
2022-07-26T00:10:46.636Z,11.38
2022-07-26T00:15:50.364Z,11.30
2022-07-26T00:20:53.658Z,12.30
2022-07-26T00:25:58.308Z,10.77
2022-07-26T00:31:01.119Z,11.27
2022-07-26T00:36:04.272Z,11.07
2022-07-26T00:41:08.001Z,12.45
2022-07-26T00:46:10.714Z,12.90
2022-07-26T00:51:13.561Z,12.90
2022-07-26T00:56:16.778Z,13.18
2022-07-26T01:01:19.617Z,12.80
2022-07-26T01:06:27.284Z,12.70
2022-07-26T01:11:30.211Z,12.57
2022-07-26T01:16:32.990Z,13.73
2022-07-26T01:21:35.991Z,14.00
2022-07-26T01:26:38.881Z,13.50
2022-07-26T01:31:41.670Z,13.48
2022-07-26T01:36:44.524Z,13.48
2022-07-26T01:41:47.163Z,14.05
2022-07-26T01:46:50.292Z,13.57
2022-07-26T01:51:52.977Z,14.55
2022-07-26T01:56:55.621Z,14.32
2022-07-26T02:01:58.439Z,12.73
2022-07-26T02:07:03.245Z,12.82
2022-07-26T02:12:08.659Z,12.18
2022-07-26T02:17:12.317Z,12.45
2022-07-26T02:22:15.261Z,11.82
2022-07-26T02:27:18.261Z,11.00
2022-07-26T02:32:20.932Z,10.18
2022-07-26T02:37:23.615Z,9.43
2022-07-26T02:42:26.356Z,10.13
2022-07-26T02:47:29.086Z,10.05
2022-07-26T02:52:31.854Z,10.07
2022-07-26T02:57:45.309Z,9.60
2022-07-26T03:02:51.308Z,8.80
2022-07-26T03:07:54.169Z,8.85
2022-07-26T03:12:56.763Z,9.82
2022-07-26T03:17:59.489Z,10.05
2022-07-26T03:23:02.334Z,10.43
2022-07-26T03:28:05.282Z,9.20
2022-07-26T03:33:07.973Z,10.93
2022-07-26T03:38:10.625Z,9.80
2022-07-26T03:43:13.358Z,9.80
2022-07-26T03:48:16.124Z,10.32
2022-07-26T03:53:19.050Z,11.25
2022-07-26T03:58:21.880Z,11.15
2022-07-26T04:03:25.476Z,10.70
2022-07-26T04:08:28.416Z,10.57
2022-07-26T04:13:31.073Z,9.63
2022-07-26T04:18:33.752Z,10.60
2022-07-26T04:23:37.142Z,10.15
2022-07-26T04:28:41.115Z,9.75
2022-07-26T04:33:43.780Z,9.73
2022-07-26T04:38:46.569Z,11.13
2022-07-26T04:43:49.232Z,9.98
2022-07-26T04:48:51.976Z,10.25
2022-07-26T04:53:54.721Z,10.27
2022-07-26T04:58:57.405Z,11.10
2022-07-26T05:04:00.027Z,9.68
2022-07-26T05:09:03.111Z,9.85
2022-07-26T05:14:06.099Z,10.23
2022-07-26T05:19:09.131Z,9.55
2022-07-26T05:24:12.176Z,11.40
2022-07-26T05:29:15.265Z,10.60
2022-07-26T05:34:17.985Z,10.65
2022-07-26T05:39:20.658Z,11.07
2022-07-26T05:44:24.676Z,11.00
2022-07-26T05:49:40.485Z,10.18
2022-07-26T05:54:43.530Z,11.45
2022-07-26T05:59:46.219Z,10.20
2022-07-26T06:04:48.979Z,9.30
2022-07-26T06:09:51.774Z,9.30
2022-07-26T06:14:54.370Z,10.48
2022-07-26T06:19:58.155Z,10.07
2022-07-26T06:25:00.859Z,11.02
2022-07-26T06:30:04.716Z,11.57
2022-07-26T06:35:07.745Z,11.43
2022-07-26T06:40:11.273Z,11.73
2022-07-26T06:45:14.384Z,11.90
2022-07-26T06:50:17.161Z,12.10
2022-07-26T06:55:28.045Z,11.38
2022-07-26T07:00:30.873Z,10.77
2022-07-26T07:05:33.573Z,11.07
2022-07-26T07:10:36.309Z,11.52
2022-07-26T07:15:39.146Z,11.30
2022-07-26T07:20:41.839Z,10.27
2022-07-26T07:25:44.750Z,10.25
2022-07-26T07:30:47.884Z,9.13
2022-07-26T07:35:52.338Z,10.20
2022-07-26T07:40:55.107Z,9.70
2022-07-26T07:45:57.845Z,8.65
2022-07-26T07:51:00.613Z,7.10
2022-07-26T07:56:03.900Z,9.25
2022-07-26T08:01:06.838Z,8.20
2022-07-26T08:06:12.840Z,7.90
2022-07-26T08:11:16.353Z,8.52
2022-07-26T08:16:19.103Z,7.78
2022-07-26T08:21:21.910Z,7.80
2022-07-26T08:26:25.326Z,7.90
2022-07-26T08:31:29.305Z,9.07
2022-07-26T08:36:33.115Z,8.57
2022-07-26T08:41:36.936Z,7.55
2022-07-26T08:46:41.960Z,7.65
2022-07-26T08:51:45.077Z,7.75
2022-07-26T08:56:52.590Z,7.63
2022-07-26T09:02:07.777Z,8.75
2022-07-26T09:07:19.113Z,8.13
2022-07-26T09:12:23.531Z,8.43
2022-07-26T09:17:38.815Z,7.50
2022-07-26T09:23:02.561Z,8.00
2022-07-26T09:28:25.820Z,8.18
2022-07-26T09:33:48.175Z,7.88
2022-07-26T09:38:58.353Z,6.75
2022-07-26T09:44:06.707Z,7.78
2022-07-26T09:49:20.422Z,7.10
2022-07-26T09:54:46.881Z,7.15
2022-07-26T09:59:49.626Z,6.93
2022-07-26T10:04:56.653Z,7.25
2022-07-26T10:15:47.319Z,7.78
2022-07-26T10:20:51.592Z,7.50
2022-07-26T10:25:54.698Z,6.90
2022-07-26T10:31:21.590Z,7.82
2022-07-26T10:36:31.158Z,7.30
2022-07-26T10:41:48.597Z,7.67
2022-07-26T10:47:00.177Z,8.27
2022-07-26T10:52:12.661Z,7.93
2022-07-26T10:57:15.421Z,7.15
2022-07-26T11:02:19.630Z,7.75
2022-07-26T11:07:22.331Z,6.93
2022-07-26T11:12:25.876Z,7.30
2022-07-26T11:17:30.449Z,8.10
2022-07-26T11:22:34.224Z,7.15
2022-07-26T11:27:37.129Z,6.72
2022-07-26T11:32:39.882Z,7.28
2022-07-26T11:37:53.121Z,7.68
2022-07-26T11:42:55.894Z,7.45
2022-07-26T11:47:59.061Z,7.10
2022-07-26T11:53:01.833Z,8.52
2022-07-26T11:58:06.943Z,7.93
2022-07-26T12:03:09.685Z,7.40
2022-07-26T12:08:12.396Z,7.80
2022-07-26T12:13:16.374Z,7.78
2022-07-26T12:18:23.883Z,8.35
2022-07-26T12:23:26.970Z,7.80
2022-07-26T12:28:42.898Z,8.30
2022-07-26T12:33:49.473Z,8.80
2022-07-26T12:38:56.125Z,9.90
2022-07-26T12:43:59.867Z,8.98
2022-07-26T12:49:04.187Z,8.68
2022-07-26T12:54:07.446Z,9.25
2022-07-26T12:59:12.277Z,9.65
2022-07-26T13:04:20.867Z,8.85
2022-07-26T13:09:23.575Z,8.50
2022-07-26T13:14:26.398Z,8.98
2022-07-26T13:19:30.038Z,8.68
2022-07-26T13:24:34.268Z,10.02
2022-07-26T13:29:37.418Z,10.07
2022-07-26T13:34:40.165Z,9.15
2022-07-26T13:39:45.081Z,7.32
2022-07-26T13:44:47.750Z,7.80
2022-07-26T13:49:51.557Z,7.60
2022-07-26T13:54:54.178Z,7.75
2022-07-26T13:59:56.979Z,7.43
2022-07-26T14:04:59.805Z,7.72
2022-07-26T14:10:02.669Z,8.02
2022-07-26T14:15:13.751Z,7.82
2022-07-26T14:20:20.748Z,7.63
2022-07-26T14:25:25.494Z,8.27
2022-07-26T14:30:28.382Z,7.88
2022-07-26T14:35:31.124Z,8.50
2022-07-26T14:40:35.541Z,9.18
2022-07-26T14:45:38.284Z,8.95
2022-07-26T14:51:07.199Z,10.07
2022-07-26T14:56:04.627Z,10.30
2022-07-26T15:01:07.523Z,10.02
2022-07-26T15:06:10.317Z,10.48
2022-07-26T15:11:13.733Z,9.20
2022-07-26T15:16:16.465Z,8.75
2022-07-26T15:21:19.221Z,9.45
2022-07-26T15:26:21.917Z,9.57
2022-07-26T15:31:24.952Z,10.30
2022-07-26T15:36:40.302Z,8.75
2022-07-26T15:41:42.923Z,8.70
2022-07-26T15:46:48.183Z,7.90
2022-07-26T15:51:51.623Z,8.15
2022-07-26T15:56:54.366Z,8.45
2022-07-26T16:01:57.133Z,8.25
2022-07-26T16:06:59.814Z,7.88
2022-07-26T16:12:05.904Z,8.00
2022-07-26T16:17:10.434Z,7.20
2022-07-26T16:22:13.149Z,8.48
2022-07-26T16:27:15.972Z,9.15
2022-07-26T16:32:20.729Z,8.88
2022-07-26T16:37:23.477Z,8.88
2022-07-26T16:42:26.442Z,10.23
2022-07-26T16:47:29.371Z,10.20
2022-07-26T16:52:32.230Z,10.20
2022-07-26T16:57:34.944Z,7.55
2022-07-26T17:02:39.077Z,7.72
2022-07-26T17:07:41.835Z,8.43
2022-07-26T17:12:44.851Z,8.35
2022-07-26T17:17:49.963Z,8.98
2022-07-26T17:22:53.624Z,9.30
2022-07-26T17:27:56.383Z,10.27
2022-07-26T17:32:59.182Z,12.55
2022-07-26T17:38:01.992Z,10.15
2022-07-26T17:43:06.243Z,9.95
2022-07-26T17:48:09.261Z,10.10
2022-07-26T17:53:11.943Z,11.98
2022-07-26T17:58:14.697Z,12.55
2022-07-26T18:03:18.229Z,10.50
2022-07-26T18:08:23.034Z,12.52
2022-07-26T18:13:26.584Z,12.13
2022-07-26T18:18:29.268Z,10.70
2022-07-26T18:23:31.984Z,15.38
2022-07-26T18:28:34.636Z,15.55
2022-07-26T18:33:37.285Z,11.35
2022-07-26T18:38:40.181Z,10.70
2022-07-26T18:43:46.185Z,11.68
2022-07-26T18:48:48.931Z,12.15
2022-07-26T18:53:52.163Z,11.98
2022-07-26T18:58:54.942Z,32.13
2022-07-26T19:03:57.798Z,14.00
2022-07-26T19:09:00.730Z,11.57
2022-07-26T19:14:03.401Z,11.40
2022-07-26T19:19:06.313Z,10.65
2022-07-26T19:24:09.012Z,13.75
2022-07-26T19:29:11.915Z,12.27
2022-07-26T19:34:15.447Z,11.45
2022-07-26T19:39:18.305Z,13.43
2022-07-26T19:44:21.221Z,13.50
2022-07-26T19:49:24.045Z,12.02
2022-07-26T19:54:26.850Z,12.32
2022-07-26T19:59:29.538Z,11.57
2022-07-26T20:04:32.269Z,12.18
2022-07-26T20:09:35.033Z,12.27
2022-07-26T20:14:37.841Z,12.73
2022-07-26T20:19:41.147Z,12.80
2022-07-26T20:24:43.936Z,12.13
2022-07-26T20:29:46.652Z,12.43
2022-07-26T20:34:49.475Z,12.52
2022-07-26T20:39:52.114Z,13.30
2022-07-26T20:44:54.772Z,12.73
2022-07-26T20:50:02.809Z,13.38
2022-07-26T20:55:06.957Z,13.25
2022-07-26T21:00:11.536Z,12.35
2022-07-26T21:05:14.292Z,11.98
2022-07-26T21:10:17.649Z,12.65
2022-07-26T21:15:21.291Z,12.65
2022-07-26T21:20:24.173Z,13.05
2022-07-26T21:25:26.919Z,13.02
2022-07-26T21:30:31.340Z,12.75
2022-07-26T21:35:34.538Z,12.85
2022-07-26T21:40:37.264Z,13.15
2022-07-26T21:45:40.189Z,13.30
2022-07-26T21:50:42.884Z,13.80
2022-07-26T21:55:46.373Z,13.23
2022-07-26T22:00:49.160Z,13.25
2022-07-26T22:05:52.574Z,13.55
2022-07-26T22:10:56.908Z,13.50
2022-07-26T22:15:59.733Z,13.32
2022-07-26T22:21:02.861Z,14.43
2022-07-26T22:26:05.647Z,13.23
2022-07-26T22:31:08.455Z,14.18
2022-07-26T22:36:11.189Z,14.65
2022-07-26T22:41:13.968Z,13.32
2022-07-26T22:46:16.789Z,14.82
2022-07-26T22:51:19.724Z,14.25
2022-07-26T22:56:22.474Z,14.10
2022-07-26T23:01:25.270Z,15.40
2022-07-26T23:06:31.240Z,15.38
2022-07-26T23:11:34.959Z,15.07
2022-07-26T23:16:38.423Z,15.35
2022-07-26T23:21:41.280Z,16.33
2022-07-26T23:26:44.021Z,15.90
2022-07-26T23:31:46.740Z,16.10
2022-07-26T23:36:49.512Z,14.73
2022-07-26T23:41:52.272Z,15.52
2022-07-26T23:46:55.125Z,15.35
2022-07-26T23:51:57.907Z,15.68
2022-07-26T23:57:00.781Z,14.77
